Latest Weather Observations for Lake Macquarie - Cooranbong

IDN60901

Issued at 11:51 am EST Thursday 28 May 2015 (issued every 10 minutes, with the page automatically refreshed every 10 minutes)

About weather observations | Map of Sydney area stations | Latest observations for Sydney area | Other Formats
Station Details ID: 061412 Name: LAKE MACQUARIE AWS Lat: -33.09 Lon: 151.46 Height: 6.0 m
Data from the previous 72 hours. | See also: Recent months at Lake Macquarie - Cooranbong
Date/Time
EST
Tmp

°C
App
Tmp
°C
Dew
Point
°C
Rel
Hum
%
Delta-T

°C
Wind Press
QNH
hPa
Press
MSL
hPa
Rain
since
9 am
mm
Dir
 
Spd
km/h
Gust
km/h
Spd
kts
Gust
kts
28/11:30am 21.0 19.5 9.3 47 6.2 N 7 13 4 7 1022.7 1022.7 0.0
28/11:00am 20.7 19.9 11.1 54 5.3 NNW 6 9 3 5 1023.1 1023.1 0.0
28/10:30am 19.4 19.7 12.2 63 4.0 NNE 2 6 1 3 1023.6 1023.6 0.0
28/10:00am 17.9 18.6 12.1 69 3.2 CALM 0 0 0 0 1023.8 1023.8 0.0
28/09:30am 16.4 17.0 12.0 75 2.4 CALM 0 4 0 2 1024.1 1024.1 0.0
28/09:00am 13.9 14.6 12.3 90 0.9 CALM 0 0 0 0 1023.9 1023.9 0.0
28/08:30am 11.0 11.2 10.4 96 0.3 CALM 0 0 0 0 1023.7 1023.7 0.0
28/08:00am 9.3 9.0 8.8 97 0.2 CALM 0 0 0 0 1023.7 1023.7 0.0
28/07:30am 7.2 6.4 6.6 96 0.3 CALM 0 0 0 0 1023.5 1023.5 0.0
28/07:00am 6.7 5.8 6.0 95 0.3 CALM 0 0 0 0 1023.6 1023.6 0.0
28/06:30am 6.9 6.1 6.3 96 0.3 CALM 0 0 0 0 1023.4 1023.4 0.0
28/06:00am 7.3 6.5 6.6 95 0.3 CALM 0 0 0 0 1022.7 1022.7 0.0
28/05:30am 7.4 6.6 6.7 95 0.3 CALM 0 0 0 0 1022.6 1022.6 0.0
28/05:00am 8.0 7.4 7.2 95 0.4 CALM 0 0 0 0 1022.7 1022.7 0.0
28/04:30am 7.8 7.1 7.1 95 0.3 CALM 0 0 0 0 1022.5 1022.5 0.0
28/04:00am 8.5 8.0 7.7 95 0.4 CALM 0 0 0 0 1022.6 1022.6 0.0
28/03:30am 8.9 8.5 8.3 96 0.3 CALM 0 0 0 0 1022.5 1022.5 0.0
28/03:00am 9.0 8.6 8.2 95 0.4 CALM 0 0 0 0 1022.7 1022.7 0.0
28/02:30am 9.1 8.8 8.5 96 0.3 CALM 0 0 0 0 1022.9 1022.9 0.0
28/02:00am 9.0 8.6 8.2 95 0.4 CALM 0 0 0 0 1023.1 1023.1 0.0
28/01:30am 9.3 9.0 8.7 96 0.3 CALM 0 0 0 0 1023.2 1023.2 0.0
28/01:00am 9.0 8.6 8.2 95 0.4 CALM 0 0 0 0 1023.2 1023.2 0.0
28/12:30am 9.3 9.0 8.5 95 0.4 CALM 0 0 0 0 1023.1 1023.1 0.0
28/12:00am 9.5 9.2 8.6 94 0.4 CALM 0 0 0 0 1023.3 1023.3 0.0
 
Date/Time
EST
Tmp

°C
App
Tmp
°C
Dew
Point
°C
Rel
Hum
%
Delta-T

°C
Wind Press
QNH
hPa
Press
MSL
hPa
Rain
since
9 am
mm
Dir
 
Spd
km/h
Gust
km/h
Spd
kts
Gust
kts
27/11:30pm 9.8 9.6 8.9 94 0.4 CALM 0 0 0 0 1023.3 1023.3 0.0
27/11:00pm 10.1 10.0 9.3 95 0.4 CALM 0 0 0 0 1023.3 1023.3 0.0
27/10:30pm 10.2 10.1 9.3 94 0.4 CALM 0 0 0 0 1023.2 1023.2 0.0
27/10:00pm 10.5 10.4 9.4 93 0.5 CALM 0 0 0 0 1023.1 1023.1 0.0
27/09:30pm 11.0 11.1 10.1 94 0.5 CALM 0 0 0 0 1023.2 1023.2 0.0
27/09:00pm 11.0 11.0 9.9 93 0.6 CALM 0 0 0 0 1023.3 1023.3 0.0
27/08:30pm 11.3 11.4 10.0 92 0.7 CALM 0 0 0 0 1023.2 1023.2 0.0
27/08:00pm 11.7 11.9 10.4 92 0.7 CALM 0 0 0 0 1023.2 1023.2 0.0
27/07:30pm 11.8 12.0 10.4 91 0.7 CALM 0 0 0 0 1023.1 1023.1 0.0
27/07:00pm 12.3 12.6 10.9 91 0.7 CALM 0 0 0 0 1022.9 1022.9 0.0
27/06:30pm 12.6 12.9 11.0 90 0.8 CALM 0 0 0 0 1022.6 1022.6 0.0
27/06:00pm 12.9 13.2 11.0 88 1.0 CALM 0 0 0 0 1022.6 1022.6 0.0
27/05:30pm 12.8 12.6 10.5 86 1.2 NW 2 4 1 2 1022.4 1022.4 0.0
27/05:00pm 13.9 14.2 10.9 82 1.6 CALM 0 0 0 0 1022.1 1022.1 0.0
27/04:30pm 15.8 16.1 10.8 72 2.7 CALM 0 0 0 0 1022.1 1022.1 0.0
27/04:00pm 17.7 17.1 8.8 56 4.6 NW 2 4 1 2 1022.0 1022.0 0.0
27/03:30pm 18.7 17.7 8.9 53 5.1 WNW 4 6 2 3 1022.3 1022.3 0.0
27/03:00pm 19.0 17.5 8.6 51 5.4 W 6 7 3 4 1022.3 1022.3 0.0
27/02:30pm 18.3 16.8 8.6 53 5.0 W 6 7 3 4 1022.3 1022.3 0.0
27/02:00pm 18.6 17.3 7.7 49 5.5 WSW 4 6 2 3 1022.2 1022.2 0.0
27/01:30pm 19.1 16.7 5.2 40 6.8 WNW 7 15 4 8 1022.5 1022.5 0.0
27/01:00pm 19.5 17.5 7.3 45 6.2 WNW 7 11 4 6 1022.9 1022.9 0.0
27/12:30pm 19.1 17.4 7.5 47 5.9 NW 6 7 3 4 1023.3 1023.3 0.0
27/12:00pm 19.0 17.3 8.4 50 5.5 NNW 7 13 4 7 1023.7 1023.7 0.0
27/11:30am 19.4 18.0 9.6 53 5.2 N 7 13 4 7 1024.0 1024.0 0.0
27/11:00am 18.6 18.2 9.7 56 4.7 N 2 9 1 5 1024.9 1024.9 0.0
27/10:30am 17.1 16.6 9.3 60 4.1 NW 2 7 1 4 1025.1 1025.1 0.0
27/10:00am 16.0 16.8 12.4 79 2.0 CALM 0 0 0 0 1025.2 1025.2 0.0
27/09:30am 13.0 13.5 11.7 92 0.7 CALM 0 0 0 0 1025.4 1025.4 0.0
27/09:00am 12.0 12.5 11.5 97 0.3 CALM 0 0 0 0 1025.6 1025.6 0.2
27/08:30am 9.8 9.6 9.2 96 0.3 CALM 0 0 0 0 1025.4 1025.4 0.2
27/08:00am 8.7 8.3 8.1 96 0.3 CALM 0 0 0 0 1025.2 1025.2 0.2
27/07:30am 8.5 8.0 7.9 96 0.3 CALM 0 0 0 0 1025.0 1025.0 0.2
27/07:00am 8.5 8.0 7.9 96 0.3 CALM 0 0 0 0 1024.9 1024.9 0.2
27/06:30am 8.5 8.0 7.7 95 0.4 CALM 0 0 0 0 1024.7 1024.7 0.2
27/06:00am 8.6 8.1 7.8 95 0.4 CALM 0 0 0 0 1024.8 1024.8 0.2
27/05:30am 8.9 8.5 8.1 95 0.4 CALM 0 0 0 0 1024.7 1024.7 0.2
27/05:00am 9.3 9.0 8.5 95 0.4 CALM 0 0 0 0 1024.5 1024.5 0.2
27/04:30am 9.9 9.7 9.1 95 0.4 CALM 0 0 0 0 1024.6 1024.6 0.2
27/04:00am 10.0 9.8 9.2 95 0.4 CALM 0 0 0 0 1024.6 1024.6 0.2
27/03:30am 10.1 10.0 9.3 95 0.4 CALM 0 0 0 0 1024.8 1024.8 0.2
27/03:00am 10.0 9.8 9.2 95 0.4 CALM 0 0 0 0 1025.3 1025.3 0.2
27/02:30am 9.9 9.7 9.0 94 0.4 CALM 0 0 0 0 1025.4 1025.4 0.2
27/02:00am 10.1 9.9 9.2 94 0.4 CALM 0 4 0 2 1025.4 1025.4 0.2
27/01:30am 10.2 10.0 9.1 93 0.5 CALM 0 0 0 0 1025.4 1025.4 0.2
27/01:00am 10.6 10.5 9.5 93 0.5 CALM 0 0 0 0 1025.3 1025.3 0.2
27/12:30am 10.8 10.8 9.7 93 0.6 CALM 0 4 0 2 1025.6 1025.6 0.2
27/12:00am 10.9 10.5 9.8 93 0.6 NW 2 6 1 3 1025.8 1025.8 0.2
 
Date/Time
EST
Tmp

°C
App
Tmp
°C
Dew
Point
°C
Rel
Hum
%
Delta-T

°C
Wind Press
QNH
hPa
Press
MSL
hPa
Rain
since
9 am
mm
Dir
 
Spd
km/h
Gust
km/h
Spd
kts
Gust
kts
26/11:30pm 10.8 10.4 9.7 93 0.6 N 2 4 1 2 1026.2 1026.2 0.2
26/11:00pm 11.1 11.2 10.0 93 0.6 CALM 0 4 0 2 1026.3 1026.3 0.2
26/10:30pm 11.1 11.2 10.0 93 0.6 CALM 0 0 0 0 1026.2 1026.2 0.2
26/10:00pm 11.1 11.1 9.9 92 0.6 CALM 0 0 0 0 1026.4 1026.4 0.2
26/09:30pm 11.4 11.5 10.1 92 0.7 CALM 0 0 0 0 1026.6 1026.6 0.2
26/09:00pm 11.5 11.6 10.1 91 0.7 CALM 0 0 0 0 1026.6 1026.6 0.2
26/08:30pm 11.8 11.9 10.2 90 0.8 CALM 0 0 0 0 1026.8 1026.8 0.2
26/08:00pm 12.0 12.2 10.4 90 0.8 CALM 0 0 0 0 1026.9 1026.9 0.2
26/07:30pm 12.3 12.5 10.5 89 0.9 CALM 0 0 0 0 1027.1 1027.1 0.2
26/07:00pm 12.6 12.8 10.7 88 1.0 CALM 0 0 0 0 1027.0 1027.0 0.2
26/06:30pm 13.1 13.1 11.0 87 1.1 NW 2 2 1 1 1026.8 1026.8 0.2
26/06:00pm 13.3 13.0 11.4 88 1.0 WNW 4 6 2 3 1026.8 1026.8 0.2
26/05:30pm 13.5 13.8 11.0 85 1.3 CALM 0 0 0 0 1026.6 1026.6 0.2
26/05:00pm 14.4 14.8 11.4 82 1.6 CALM 0 0 0 0 1026.3 1026.3 0.2
26/04:30pm 14.8 15.0 10.6 76 2.2 CALM 0 0 0 0 1026.2 1026.2 0.2
26/04:00pm 16.3 16.6 11.0 71 2.8 CALM 0 0 0 0 1026.3 1026.3 0.2
26/03:30pm 17.2 17.1 9.6 61 4.0 CALM 0 0 0 0 1026.7 1026.7 0.2
26/03:00pm 17.8 17.1 8.6 55 4.7 SW 2 4 1 2 1026.8 1026.8 0.2
26/02:30pm 18.4 18.0 8.1 51 5.3 CALM 0 4 0 2 1026.9 1026.9 0.2
26/02:00pm 18.6 17.7 9.1 54 4.9 SW 4 9 2 5 1026.9 1026.9 0.2
26/01:30pm 18.6 17.9 8.6 52 5.2 SSW 2 6 1 3 1027.1 1027.1 0.2
26/01:00pm 18.6 17.1 8.6 52 5.1 SW 6 9 3 5 1027.3 1027.3 0.2
26/12:30pm 18.3 16.8 8.6 53 5.0 SW 6 9 3 5 1027.7 1027.7 0.2
26/12:00pm 18.4 17.6 9.5 56 4.7 SSW 4 6 2 3 1028.2 1028.2 0.0
26/11:30am 17.8 16.9 9.2 57 4.5 SSW 4 7 2 4 1028.7 1028.7 0.0
26/11:00am 17.5 16.3 9.7 60 4.1 S 6 13 3 7 1029.2 1029.2 0.0
26/10:30am 16.8 16.1 10.2 65 3.5 WSW 4 7 2 4 1029.4 1029.4 0.0
26/10:00am 16.7 16.8 11.4 71 2.8 N 2 7 1 4 1029.6 1029.6 0.0
26/09:30am 14.4 14.9 11.6 83 1.5 CALM 0 0 0 0 1029.7 1029.7 0.0
26/09:00am 12.2 12.7 11.6 96 0.3 CALM 0 0 0 0 1029.8 1029.8 0.0
26/08:30am 10.3 10.4 10.0 98 0.2 CALM 0 0 0 0 1029.8 1029.8 0.0
26/08:00am 7.7 7.1 7.3 97 0.2 CALM 0 0 0 0 1029.7 1029.7 0.0
26/07:30am 5.6 4.5 5.2 97 0.2 CALM 0 0 0 0 1029.3 1029.3 0.0
26/07:00am 4.8 3.5 4.2 96 0.3 CALM 0 0 0 0 1029.1 1029.1 0.0
26/06:30am 5.0 3.8 4.4 96 0.3 CALM 0 0 0 0 1029.0 1029.0 0.0
26/06:00am 5.0 3.8 4.4 96 0.3 CALM 0 0 0 0 1028.8 1028.8 0.0
26/05:30am 5.3 4.1 4.7 96 0.3 CALM 0 0 0 0 1028.8 1028.8 0.0
26/05:00am 5.8 4.7 5.2 96 0.3 CALM 0 0 0 0 1028.7 1028.7 0.0
26/04:30am 6.0 5.0 5.4 96 0.3 CALM 0 0 0 0 1028.6 1028.6 0.0
26/04:00am 6.1 5.1 5.5 96 0.3 CALM 0 0 0 0 1028.6 1028.6 0.0
26/03:30am 6.4 5.4 5.8 96 0.3 CALM 0 0 0 0 1028.8 1028.8 0.0
26/03:00am 6.1 5.1 5.4 95 0.3 CALM 0 0 0 0 1028.4 1028.4 0.0
26/02:30am 6.8 5.9 6.1 95 0.3 CALM 0 0 0 0 1028.8 1028.8 0.0
26/02:00am 7.2 6.4 6.5 95 0.3 CALM 0 0 0 0 1029.1 1029.1 0.0
26/01:30am 7.3 6.5 6.6 95 0.3 CALM 0 0 0 0 1029.0 1029.0 0.0
26/01:00am 7.7 7.0 7.0 95 0.3 CALM 0 0 0 0 1029.0 1029.0 0.0
26/12:30am 7.9 7.2 7.1 95 0.4 CALM 0 0 0 0 1029.2 1029.2 0.0
26/12:00am 8.1 7.5 7.3 95 0.4 CALM 0 0 0 0 1029.2 1029.2 0.0
 
Date/Time
EST
Tmp

°C
App
Tmp
°C
Dew
Point
°C
Rel
Hum
%
Delta-T

°C
Wind Press
QNH
hPa
Press
MSL
hPa
Rain
since
9 am
mm
Dir
 
Spd
km/h
Gust
km/h
Spd
kts
Gust
kts
25/11:30pm 8.3 7.7 7.5 95 0.4 CALM 0 0 0 0 1029.3 1029.3 0.0
25/11:00pm 8.9 8.5 8.1 95 0.4 CALM 0 0 0 0 1029.4 1029.4 0.0
25/10:30pm 9.3 8.9 8.4 94 0.4 CALM 0 0 0 0 1029.4 1029.4 0.0
25/10:00pm 9.7 9.4 8.8 94 0.4 CALM 0 0 0 0 1029.7 1029.7 0.0
25/09:30pm 10.1 9.9 9.0 93 0.5 CALM 0 0 0 0 1029.5 1029.5 0.0
25/09:00pm 10.7 10.6 9.6 93 0.5 CALM 0 0 0 0 1029.6 1029.6 0.0
25/08:30pm 11.1 11.2 10.0 93 0.6 CALM 0 0 0 0 1029.9 1029.9 0.0
25/08:00pm 11.5 11.7 10.4 93 0.6 CALM 0 0 0 0 1029.9 1029.9 0.0
25/07:30pm 11.6 11.7 10.2 91 0.7 CALM 0 0 0 0 1029.6 1029.6 0.0
25/07:00pm 12.4 12.7 10.8 90 0.8 CALM 0 0 0 0 1029.4 1029.4 0.0
25/06:30pm 12.7 13.0 10.9 89 0.9 CALM 0 2 0 1 1028.9 1028.9 0.0
25/06:00pm 13.0 13.4 11.2 89 0.9 CALM 0 0 0 0 1028.4 1028.4 0.0
25/05:30pm 13.6 13.9 10.8 83 1.5 CALM 0 0 0 0 1028.6 1028.6 0.0
25/05:00pm 14.5 14.7 10.7 78 2.0 CALM 0 0 0 0 1028.5 1028.5 0.0
25/04:30pm 15.9 15.9 11.1 73 2.6 N 2 4 1 2 1028.5 1028.5 0.0
25/04:00pm 17.2 16.7 10.6 65 3.5 N 4 7 2 4 1028.4 1028.4 0.0
25/03:30pm 18.8 17.8 10.4 58 4.5 NNE 6 9 3 5 1028.5 1028.5 0.0
25/03:00pm 18.8 17.5 9.8 56 4.7 NNE 7 11 4 6 1028.5 1028.5 0.0
25/02:30pm 19.3 18.0 10.0 55 5.0 NNE 7 13 4 7 1028.7 1028.7 0.0
25/02:00pm 20.4 19.1 9.3 49 5.9 NE 6 9 3 5 1029.0 1029.0 0.0
25/01:30pm 19.5 17.8 8.5 49 5.7 NNE 7 11 4 6 1029.2 1029.2 0.0
25/01:00pm 18.8 17.4 9.0 53 5.1 NNE 6 9 3 5 1029.3 1029.3 0.0
25/12:30pm 18.3 16.2 8.3 52 5.1 NNE 9 15 5 8 1029.6 1029.6 0.0
25/12:00pm 18.9 17.5 8.8 52 5.2 ENE 6 11 3 6 1030.3 1030.3 0.0

Latest Capital City Observations: Canberra | Sydney | Melbourne | Brisbane | Adelaide | Perth | Hobart | Darwin

Other Formats:

Comma delimited format used in spreadsheet applications
http://www.bom.gov.au/fwo/IDN60901/IDN60901.95767.axf

JavaScript Object Notation format (JSON) in row-major order
http://www.bom.gov.au/fwo/IDN60901/IDN60901.95767.json